createdAt,value
2018-11-10T00:00:10.915Z,39.6
2018-11-10T00:02:05.615Z,39.6
2018-11-10T00:04:10.538Z,39.3
2018-11-10T00:06:08.121Z,39.3
2018-11-10T00:08:05.957Z,39.4
2018-11-10T00:10:05.758Z,39.3
2018-11-10T00:12:05.959Z,39.4
2018-11-10T00:14:05.668Z,39.3
2018-11-10T00:16:10.495Z,39.3
2018-11-10T00:18:05.397Z,39.3
2018-11-10T00:20:05.189Z,39.2
2018-11-10T00:22:05.888Z,39.5
2018-11-10T00:24:05.558Z,39.2
2018-11-10T00:26:05.258Z,39.2
2018-11-10T00:28:08.481Z,39.3
2018-11-10T00:30:05.188Z,39.3
2018-11-10T00:32:08.442Z,39.5
2018-11-10T00:34:05.142Z,39.5
2018-11-10T00:36:08.416Z,39.3
2018-11-10T00:38:07.658Z,39.2
2018-11-10T00:40:05.346Z,39.2
2018-11-10T00:42:05.053Z,39.3
2018-11-10T00:44:05.770Z,39.4
2018-11-10T00:46:05.538Z,39.2
2018-11-10T00:48:07.738Z,39.1
2018-11-10T00:50:07.909Z,39.3
2018-11-10T00:52:05.617Z,39.2
2018-11-10T00:54:07.840Z,39.2
2018-11-10T00:56:05.548Z,39.2
2018-11-10T00:58:05.260Z,39.3
2018-11-10T01:00:08.530Z,39.1
2018-11-10T01:02:05.204Z,39.1
2018-11-10T01:04:08.610Z,38.8
2018-11-10T01:06:05.828Z,38.8
2018-11-10T01:08:05.570Z,39
2018-11-10T01:10:05.824Z,39
2018-11-10T01:12:05.532Z,39
2018-11-10T01:14:05.235Z,38.9
2018-11-10T01:16:05.985Z,39
2018-11-10T01:18:05.916Z,39
2018-11-10T01:20:05.597Z,39
2018-11-10T01:22:05.260Z,38.9
2018-11-10T01:24:05.497Z,38.9
2018-11-10T01:26:07.797Z,38.8
2018-11-10T01:28:07.986Z,39.1
2018-11-10T01:30:05.221Z,39.1
2018-11-10T01:32:08.001Z,38.7
2018-11-10T01:34:08.254Z,38.9
2018-11-10T01:36:06.049Z,38.9
2018-11-10T01:38:10.875Z,38.9
2018-11-10T01:40:05.089Z,38.9
2018-11-10T01:42:05.777Z,39
2018-11-10T01:44:05.590Z,38.9
2018-11-10T01:46:05.309Z,38.8
2018-11-10T01:48:08.569Z,38.8
2018-11-10T01:50:05.284Z,38.8
2018-11-10T01:52:06.031Z,39.2
2018-11-10T01:54:05.747Z,38.7
2018-11-10T01:56:05.465Z,38.8
2018-11-10T01:58:07.782Z,38.7
2018-11-10T02:00:10.569Z,38.7
2018-11-10T02:02:05.347Z,38.7
2018-11-10T02:04:08.116Z,38.6
2018-11-10T02:06:05.936Z,38.6
2018-11-10T02:08:05.685Z,38.7
2018-11-10T02:10:07.983Z,38.7
2018-11-10T02:12:05.204Z,38.7
2018-11-10T02:14:05.383Z,38.7
2018-11-10T02:16:07.671Z,38.6
2018-11-10T02:18:05.124Z,38.6
2018-11-10T02:20:05.846Z,38.8
2018-11-10T02:22:05.671Z,38.8
2018-11-10T02:24:05.413Z,38.7
2018-11-10T02:26:05.672Z,38.9
2018-11-10T02:28:05.362Z,38.6
2018-11-10T02:30:05.034Z,38.6
2018-11-10T02:32:05.279Z,38.8
2018-11-10T02:34:05.608Z,38.6
2018-11-10T02:36:05.299Z,38.9
2018-11-10T02:38:06.053Z,38.8
2018-11-10T02:40:05.782Z,38.8
2018-11-10T02:42:08.045Z,38.7
2018-11-10T02:44:05.772Z,38.6
2018-11-10T02:46:05.536Z,38.9
2018-11-10T02:48:05.311Z,38.5
2018-11-10T02:50:05.003Z,38.5
2018-11-10T02:52:05.697Z,38.7
2018-11-10T02:54:05.359Z,38.6
2018-11-10T02:56:05.048Z,38.6
2018-11-10T02:58:08.271Z,38.6
2018-11-10T03:00:05.124Z,38.6
2018-11-10T03:02:05.801Z,38.7
2018-11-10T03:04:04.985Z,38.6
2018-11-10T03:06:05.184Z,38.5
2018-11-10T03:08:05.847Z,38.6
2018-11-10T03:10:05.742Z,38.5
2018-11-10T03:12:05.572Z,38.6
2018-11-10T03:14:05.305Z,38.5
2018-11-10T03:16:05.032Z,38.3
2018-11-10T03:18:05.892Z,38.5
2018-11-10T03:20:05.589Z,38.7
2018-11-10T03:22:05.319Z,38.4
2018-11-10T03:24:11.073Z,38.8
2018-11-10T03:26:08.280Z,38.7
2018-11-10T03:28:05.991Z,38.4
2018-11-10T03:30:05.701Z,38.5
2018-11-10T03:32:07.916Z,38.4
2018-11-10T03:34:05.592Z,38.4
2018-11-10T03:36:05.426Z,38.4
2018-11-10T03:38:05.159Z,38.8
2018-11-10T03:40:05.310Z,38.6
2018-11-10T03:42:10.577Z,38.4
2018-11-10T03:44:05.234Z,38.4
2018-11-10T03:46:05.883Z,38.2
2018-11-10T03:48:05.603Z,38.3
2018-11-10T03:50:10.370Z,38.1
2018-11-10T03:52:05.148Z,38.1
2018-11-10T03:54:05.497Z,38.1
2018-11-10T03:56:05.302Z,38.6
2018-11-10T03:58:06.063Z,38.1
2018-11-10T04:00:05.756Z,38.4
2018-11-10T04:02:05.941Z,38.2
2018-11-10T04:04:05.638Z,38.3
2018-11-10T04:06:07.884Z,38.3
2018-11-10T04:08:08.125Z,37.9
2018-11-10T04:10:07.902Z,38.2
2018-11-10T04:12:05.618Z,38
2018-11-10T04:14:05.104Z,38
2018-11-10T04:16:05.390Z,38.3
2018-11-10T04:18:12.855Z,38.3
2018-11-10T04:20:05.675Z,38.3
2018-11-10T04:22:05.389Z,38
2018-11-10T04:24:05.641Z,38.1
2018-11-10T04:26:05.341Z,38.2
2018-11-10T04:28:05.068Z,37.9
2018-11-10T04:30:05.281Z,37.9
2018-11-10T04:32:06.075Z,38.2
2018-11-10T04:34:05.785Z,37.9
2018-11-10T04:36:05.461Z,38
2018-11-10T04:38:07.734Z,38.1
2018-11-10T04:40:08.102Z,38
2018-11-10T04:42:08.326Z,37.6
2018-11-10T04:44:07.525Z,37.8
2018-11-10T04:46:13.005Z,37.7
2018-11-10T04:48:05.283Z,37.7
2018-11-10T04:50:05.986Z,37.7
2018-11-10T04:52:05.195Z,37.9
2018-11-10T04:54:05.890Z,37.9
2018-11-10T04:56:05.650Z,38
2018-11-10T04:58:05.348Z,37.6
2018-11-10T05:00:05.644Z,37.7
2018-11-10T05:02:05.344Z,37.8
2018-11-10T05:04:10.632Z,37.8
2018-11-10T05:06:05.363Z,37.5
2018-11-10T05:08:05.085Z,37.8
2018-11-10T05:10:05.797Z,37.9
2018-11-10T05:12:08.025Z,37.6
2018-11-10T05:14:05.742Z,37.5
2018-11-10T05:16:10.576Z,37.7
2018-11-10T05:18:05.482Z,37.7
2018-11-10T05:20:05.192Z,37.8
2018-11-10T05:22:05.428Z,37.4
2018-11-10T05:24:05.279Z,37.8
2018-11-10T05:26:08.124Z,37.5
2018-11-10T05:28:05.944Z,37.5
2018-11-10T05:30:07.730Z,37.6
2018-11-10T05:32:05.432Z,37.6
2018-11-10T05:34:05.158Z,37.9
2018-11-10T05:36:05.874Z,37.6
2018-11-10T05:38:05.545Z,37.5
2018-11-10T05:40:05.270Z,37.5
2018-11-10T05:42:05.527Z,37.6
2018-11-10T05:44:07.741Z,37.5
2018-11-10T05:46:10.502Z,37.6
2018-11-10T05:48:05.231Z,37.5
2018-11-10T05:50:05.939Z,37.5
2018-11-10T05:52:14.228Z,37
2018-11-10T05:54:15.600Z,37.2
2018-11-10T05:56:08.215Z,37.6
2018-11-10T05:58:06.004Z,37.5
2018-11-10T06:00:05.664Z,37.5
2018-11-10T06:02:05.894Z,37.2
2018-11-10T06:04:05.707Z,37
2018-11-10T06:06:05.416Z,37
2018-11-10T06:08:05.095Z,37
2018-11-10T06:10:06.222Z,36.8
2018-11-10T06:12:05.692Z,37.3
2018-11-10T06:14:08.024Z,37
2018-11-10T06:16:05.807Z,37.3
2018-11-10T06:18:15.125Z,36.8
2018-11-10T06:20:08.334Z,37.1
2018-11-10T06:22:05.009Z,37.1
2018-11-10T06:24:08.243Z,36.8
2018-11-10T06:26:05.700Z,36.8
2018-11-10T06:28:05.751Z,37
2018-11-10T06:30:05.538Z,37.1
2018-11-10T06:32:05.412Z,37.4
2018-11-10T06:34:07.754Z,36.7
2018-11-10T06:36:05.512Z,36.7
2018-11-10T06:38:05.228Z,36.9
2018-11-10T06:40:05.965Z,37
2018-11-10T06:42:07.747Z,36.9
2018-11-10T06:44:05.997Z,36.9
2018-11-10T06:46:05.703Z,37.2
2018-11-10T06:48:05.433Z,37
2018-11-10T06:50:05.093Z,37.2
2018-11-10T06:52:05.783Z,36.9
2018-11-10T06:54:05.479Z,36.7
2018-11-10T06:56:05.182Z,36.8
2018-11-10T06:58:05.844Z,36.8
2018-11-10T07:00:08.155Z,37.4
2018-11-10T07:02:08.440Z,37.3
2018-11-10T07:04:05.169Z,37.3
2018-11-10T07:06:08.519Z,37.6
2018-11-10T07:08:05.188Z,37.4
2018-11-10T07:10:05.956Z,37.6
2018-11-10T07:12:05.678Z,37.8
2018-11-10T07:14:05.401Z,37.9
2018-11-10T07:16:05.188Z,37.8
2018-11-10T07:18:07.865Z,37.8
2018-11-10T07:20:07.767Z,37.8
2018-11-10T07:22:11.734Z,37.8
2018-11-10T07:24:08.041Z,37.8
2018-11-10T07:26:05.482Z,37.6
2018-11-10T07:28:05.253Z,37.5
2018-11-10T07:30:11.015Z,37.5
2018-11-10T07:32:08.298Z,37.5
2018-11-10T07:34:08.494Z,37.5
2018-11-10T07:36:05.183Z,37.5
2018-11-10T07:38:08.454Z,37.1
2018-11-10T07:40:05.144Z,37
2018-11-10T07:42:08.372Z,36.9
2018-11-10T07:44:05.067Z,36.8
2018-11-10T07:46:07.887Z,36.9
2018-11-10T07:48:05.555Z,36.9
2018-11-10T07:50:05.237Z,36.9
2018-11-10T07:52:08.486Z,36.8
2018-11-10T07:54:05.685Z,36.8
2018-11-10T07:56:06.133Z,36.8
2018-11-10T07:58:05.783Z,36.8
2018-11-10T08:00:05.616Z,37
2018-11-10T08:02:05.352Z,37
2018-11-10T08:04:05.121Z,37
2018-11-10T08:06:05.408Z,36.8
2018-11-10T08:08:05.122Z,36.6
2018-11-10T08:10:08.382Z,36.8
2018-11-10T08:12:05.091Z,36.8
2018-11-10T08:14:08.373Z,36.8
2018-11-10T08:16:08.224Z,36.6
2018-11-10T08:18:05.109Z,36.6
2018-11-10T08:20:05.818Z,36.5
2018-11-10T08:22:05.543Z,37
2018-11-10T08:24:05.345Z,36.7
2018-11-10T08:26:05.068Z,36.7
2018-11-10T08:28:05.801Z,36.6
2018-11-10T08:30:05.531Z,36.8
2018-11-10T08:32:05.291Z,36.8
2018-11-10T08:34:08.491Z,36.8
2018-11-10T08:36:05.710Z,36.8
2018-11-10T08:38:05.376Z,36.8
2018-11-10T08:40:05.636Z,36.8
2018-11-10T08:42:05.352Z,36.8
2018-11-10T08:44:05.056Z,37.1
2018-11-10T08:46:05.706Z,37
2018-11-10T08:48:05.464Z,37
2018-11-10T08:50:05.210Z,37
2018-11-10T08:52:05.952Z,37
2018-11-10T08:54:05.662Z,37
2018-11-10T08:56:05.475Z,37
2018-11-10T08:58:10.753Z,36.8
2018-11-10T09:00:05.457Z,36.8
2018-11-10T09:02:05.305Z,36.9
2018-11-10T09:04:05.997Z,37.3
2018-11-10T09:06:05.662Z,37.2
2018-11-10T09:08:05.305Z,37.2
2018-11-10T09:10:08.583Z,37.1
2018-11-10T09:12:07.998Z,37.3
2018-11-10T09:14:08.424Z,37.2
2018-11-10T09:16:05.439Z,37.1
2018-11-10T09:18:05.404Z,37.3
2018-11-10T09:20:05.337Z,37.2
2018-11-10T09:22:05.225Z,37.1
2018-11-10T09:24:05.936Z,37.2
2018-11-10T09:26:10.295Z,37
2018-11-10T09:28:06.039Z,36.8
2018-11-10T09:30:08.330Z,37
2018-11-10T09:32:13.227Z,36.8
2018-11-10T09:34:05.236Z,36.6
2018-11-10T09:36:05.926Z,36.9
2018-11-10T09:38:05.870Z,37.3
2018-11-10T09:40:05.085Z,37.5
2018-11-10T09:42:06.495Z,37.8
2018-11-10T09:44:05.430Z,37.6
2018-11-10T09:46:05.179Z,38.1
2018-11-10T09:48:05.925Z,38
2018-11-10T09:50:05.658Z,38.2
2018-11-10T09:52:05.439Z,38
2018-11-10T09:54:05.137Z,38
2018-11-10T09:56:05.886Z,38
2018-11-10T09:58:05.576Z,38.2
2018-11-10T10:00:05.876Z,38.2
2018-11-10T10:02:06.610Z,38
2018-11-10T10:04:08.378Z,38.1
2018-11-10T10:06:05.045Z,38.2
2018-11-10T10:08:05.768Z,38.1
2018-11-10T10:10:05.438Z,38.1
2018-11-10T10:12:05.126Z,38
2018-11-10T10:14:05.835Z,37.9
2018-11-10T10:16:05.756Z,38.1
2018-11-10T10:18:05.687Z,37.9
2018-11-10T10:20:05.411Z,38.2
2018-11-10T10:22:05.126Z,38
2018-11-10T10:24:05.917Z,38
2018-11-10T10:26:05.695Z,37.9
2018-11-10T10:28:05.393Z,38
2018-11-10T10:30:05.126Z,38
2018-11-10T10:32:10.992Z,38.1
2018-11-10T10:34:05.963Z,38.1
2018-11-10T10:36:05.060Z,38.1
2018-11-10T10:38:05.770Z,38.4
2018-11-10T10:40:05.488Z,38.6
2018-11-10T10:42:05.197Z,38.5
2018-11-10T10:44:05.437Z,38.5
2018-11-10T10:46:05.153Z,38.4
2018-11-10T10:48:05.861Z,38.3
2018-11-10T10:50:07.690Z,38.2
2018-11-10T10:52:05.959Z,38.2
2018-11-10T10:54:08.325Z,38.1
2018-11-10T10:56:05.531Z,38.1
2018-11-10T10:58:05.384Z,38
2018-11-10T11:00:07.586Z,38.2
2018-11-10T11:02:07.803Z,38.1
2018-11-10T11:04:05.501Z,38.1
2018-11-10T11:06:05.300Z,38.2
2018-11-10T11:08:05.991Z,38.2
2018-11-10T11:10:08.261Z,38.2
2018-11-10T11:12:06.023Z,38.2
2018-11-10T11:14:05.756Z,38.2
2018-11-10T11:16:11.037Z,38.1
2018-11-10T11:18:05.893Z,38.1
2018-11-10T11:20:05.663Z,38.1
2018-11-10T11:22:05.681Z,38.1
2018-11-10T11:24:05.903Z,38.1
2018-11-10T11:26:10.648Z,38.1
2018-11-10T11:28:05.297Z,38.1
2018-11-10T11:30:05.990Z,38
2018-11-10T11:32:07.766Z,38
2018-11-10T11:34:13.078Z,38.2
2018-11-10T11:36:05.770Z,38.2
2018-11-10T11:38:05.511Z,38.1
2018-11-10T11:40:05.802Z,38.1
2018-11-10T11:42:05.480Z,38.1
2018-11-10T11:44:05.168Z,38.2
2018-11-10T11:46:08.428Z,38.1
2018-11-10T11:48:05.165Z,38
2018-11-10T11:50:05.865Z,38.1
2018-11-10T11:52:05.597Z,38.1
2018-11-10T11:54:07.907Z,38.1
2018-11-10T11:56:15.724Z,38
2018-11-10T11:58:05.935Z,38
2018-11-10T12:00:05.488Z,38.2
2018-11-10T12:02:12.960Z,37.9
2018-11-10T12:04:05.157Z,37.9
2018-11-10T12:06:07.980Z,38.1
2018-11-10T12:08:13.265Z,38
2018-11-10T12:10:06.897Z,38
2018-11-10T12:12:05.585Z,38
2018-11-10T12:14:07.907Z,38
2018-11-10T12:16:05.847Z,38
2018-11-10T12:18:10.829Z,37.9
2018-11-10T12:20:05.559Z,38
2018-11-10T12:22:05.653Z,38.2
2018-11-10T12:24:05.727Z,37.9
2018-11-10T12:26:10.585Z,37.9
2018-11-10T12:28:05.307Z,37.9
2018-11-10T12:30:06.287Z,37.9
2018-11-10T12:32:05.213Z,38.1
2018-11-10T12:34:08.455Z,38
2018-11-10T12:36:07.790Z,38
2018-11-10T12:38:05.544Z,38
2018-11-10T12:40:05.770Z,37.9
2018-11-10T12:42:05.531Z,38
2018-11-10T12:44:07.908Z,38
2018-11-10T12:46:05.708Z,38
2018-11-10T12:48:05.375Z,38
2018-11-10T12:50:05.077Z,37.9
2018-11-10T12:52:08.407Z,37.9
2018-11-10T12:54:07.827Z,37.9
2018-11-10T12:56:05.477Z,37.9
2018-11-10T12:58:05.287Z,37.9
2018-11-10T13:00:05.154Z,37.9
2018-11-10T13:02:08.401Z,38
2018-11-10T13:04:05.076Z,37.9
2018-11-10T13:06:05.788Z,37.9
2018-11-10T13:08:05.614Z,37.9
2018-11-10T13:10:05.631Z,37.8
2018-11-10T13:12:05.514Z,37.9
2018-11-10T13:14:05.271Z,37.9
2018-11-10T13:16:05.953Z,37.8
2018-11-10T13:18:10.866Z,37.8
2018-11-10T13:20:05.648Z,37.8
2018-11-10T13:22:05.307Z,37.9
2018-11-10T13:24:10.085Z,37.7
2018-11-10T13:26:05.980Z,37.7
2018-11-10T13:28:05.196Z,37.9
2018-11-10T13:30:05.882Z,37.9
2018-11-10T13:32:10.606Z,37.8
2018-11-10T13:34:07.776Z,37.8
2018-11-10T13:36:05.427Z,37.8
2018-11-10T13:38:05.205Z,37.8
2018-11-10T13:40:05.368Z,37.8
2018-11-10T13:42:07.617Z,37.7
2018-11-10T13:44:05.647Z,37.7
2018-11-10T13:46:05.734Z,37.9
2018-11-10T13:48:05.486Z,37.7
2018-11-10T13:50:05.174Z,37.9
2018-11-10T13:52:09.358Z,37.7
2018-11-10T13:54:05.363Z,37.8
2018-11-10T13:56:05.132Z,37.7
2018-11-10T13:58:10.506Z,37.7
2018-11-10T14:00:05.201Z,37.6
2018-11-10T14:02:10.992Z,37.7
2018-11-10T14:04:05.867Z,37.6
2018-11-10T14:06:05.616Z,37.7
2018-11-10T14:08:05.805Z,37.7
2018-11-10T14:10:05.505Z,37.7
2018-11-10T14:12:10.922Z,37.6
2018-11-10T14:14:08.153Z,37.7
2018-11-10T14:16:10.900Z,37.5
2018-11-10T14:18:05.823Z,37.7
2018-11-10T14:20:05.512Z,37.7
2018-11-10T14:22:05.737Z,37.6
2018-11-10T14:24:05.434Z,37.6
2018-11-10T14:26:05.192Z,37.6
2018-11-10T14:28:05.140Z,37.6
2018-11-10T14:30:05.786Z,37.6
2018-11-10T14:32:05.053Z,37.6
2018-11-10T14:34:07.810Z,37.6
2018-11-10T14:36:05.548Z,37.6
2018-11-10T14:38:05.839Z,37.6
2018-11-10T14:40:08.288Z,37.5
2018-11-10T14:42:06.000Z,37.7
2018-11-10T14:44:05.770Z,37.6
2018-11-10T14:46:07.739Z,37.6
2018-11-10T14:48:08.011Z,37.5
2018-11-10T14:50:05.231Z,37.6
2018-11-10T14:52:05.907Z,37.5
2018-11-10T14:54:05.220Z,37.5
2018-11-10T14:56:05.937Z,37.6
2018-11-10T14:58:05.618Z,37.5
2018-11-10T15:00:05.900Z,37.4
2018-11-10T15:02:18.799Z,37.5
2018-11-10T15:04:05.487Z,37.6
2018-11-10T15:06:05.714Z,37.5
2018-11-10T15:08:05.430Z,37.4
2018-11-10T15:10:07.787Z,37.4
2018-11-10T15:12:08.274Z,37.3
2018-11-10T15:14:07.686Z,37.4
2018-11-10T15:16:05.416Z,37.4
2018-11-10T15:18:05.436Z,37.4
2018-11-10T15:20:05.575Z,37.4
2018-11-10T15:22:05.293Z,37.3
2018-11-10T15:24:05.979Z,37.3
2018-11-10T15:26:05.686Z,37.3
2018-11-10T15:28:05.922Z,37.3
2018-11-10T15:30:05.864Z,37.4
2018-11-10T15:32:05.549Z,37.3
2018-11-10T15:34:08.048Z,37.3
2018-11-10T15:36:05.769Z,37.5
2018-11-10T15:38:05.464Z,37.3
2018-11-10T15:40:05.181Z,37.2
2018-11-10T15:42:05.922Z,37.2
2018-11-10T15:44:05.609Z,37.3
2018-11-10T15:46:07.833Z,37.3
2018-11-10T15:48:05.491Z,37.3
2018-11-10T15:50:11.194Z,37.2
2018-11-10T15:52:05.972Z,37.2
2018-11-10T15:54:05.677Z,37.2
2018-11-10T15:56:05.364Z,37.3
2018-11-10T15:58:05.027Z,37.4
2018-11-10T16:00:08.253Z,37.3
2018-11-10T16:02:05.509Z,37.3
2018-11-10T16:04:05.210Z,37.3
2018-11-10T16:06:08.506Z,37.4
2018-11-10T16:08:08.255Z,37.3
2018-11-10T16:10:06.096Z,37.1
2018-11-10T16:12:18.610Z,37.2
2018-11-10T16:14:05.339Z,37.2
2018-11-10T16:16:07.536Z,37.1
2018-11-10T16:18:05.450Z,37.3
2018-11-10T16:20:08.243Z,37.2
2018-11-10T16:22:05.969Z,37.2
2018-11-10T16:24:05.832Z,37.2
2018-11-10T16:26:05.564Z,37.3
2018-11-10T16:28:05.301Z,37.2
2018-11-10T16:30:06.029Z,37.1
2018-11-10T16:32:08.275Z,37.1
2018-11-10T16:34:05.183Z,37.1
2018-11-10T16:36:05.898Z,37.3
2018-11-10T16:38:05.588Z,37.3
2018-11-10T16:40:05.550Z,37.2
2018-11-10T16:42:07.775Z,37.3
2018-11-10T16:44:08.614Z,37.1
2018-11-10T16:46:05.380Z,37.1
2018-11-10T16:48:07.562Z,37.2
2018-11-10T16:50:05.248Z,37.2
2018-11-10T16:52:08.506Z,37.1
2018-11-10T16:54:10.345Z,37.1
2018-11-10T16:56:05.635Z,37.1
2018-11-10T16:58:05.322Z,37.1
2018-11-10T17:00:05.590Z,37.1
2018-11-10T17:02:05.869Z,37.1
2018-11-10T17:04:05.706Z,37.1
2018-11-10T17:06:05.478Z,37.2
2018-11-10T17:08:08.266Z,37.2
2018-11-10T17:10:05.170Z,37.1
2018-11-10T17:12:05.908Z,37
2018-11-10T17:14:10.670Z,37.1
2018-11-10T17:16:05.591Z,37.1
2018-11-10T17:18:05.768Z,36.9
2018-11-10T17:20:05.495Z,37.2
2018-11-10T17:22:05.506Z,37
2018-11-10T17:24:13.171Z,37.1
2018-11-10T17:26:05.428Z,37
2018-11-10T17:28:05.706Z,36.9
2018-11-10T17:30:08.154Z,37.1
2018-11-10T17:32:07.776Z,36.9
2018-11-10T17:34:05.983Z,36.9
2018-11-10T17:36:05.278Z,37
2018-11-10T17:38:06.433Z,37
2018-11-10T17:40:05.753Z,37
2018-11-10T17:42:05.906Z,36.9
2018-11-10T17:44:05.516Z,37.1
2018-11-10T17:46:07.723Z,37
2018-11-10T17:48:05.486Z,37
2018-11-10T17:50:05.303Z,37
2018-11-10T17:52:05.244Z,37
2018-11-10T17:54:08.474Z,37
2018-11-10T17:56:05.148Z,37
2018-11-10T17:58:08.423Z,36.9
2018-11-10T18:00:05.166Z,36.9
2018-11-10T18:02:05.982Z,37
2018-11-10T18:04:05.147Z,37
2018-11-10T18:06:05.878Z,37
2018-11-10T18:08:08.168Z,36.9
2018-11-10T18:10:05.123Z,36.8
2018-11-10T18:12:05.815Z,37
2018-11-10T18:14:05.539Z,36.8
2018-11-10T18:16:05.780Z,37.1
2018-11-10T18:18:05.652Z,36.8
2018-11-10T18:20:05.352Z,36.8
2018-11-10T18:22:07.686Z,36.8
2018-11-10T18:24:05.414Z,36.8
2018-11-10T18:26:07.646Z,37
2018-11-10T18:28:05.419Z,37
2018-11-10T18:30:05.632Z,36.9
2018-11-10T18:32:05.337Z,36.9
2018-11-10T18:34:05.024Z,36.9
2018-11-10T18:36:05.741Z,36.7
2018-11-10T18:38:05.463Z,36.8
2018-11-10T18:40:05.576Z,36.8
2018-11-10T18:42:05.782Z,36.8
2018-11-10T18:44:05.628Z,36.8
2018-11-10T18:46:06.097Z,36.8
2018-11-10T18:48:05.382Z,36.8
2018-11-10T18:50:08.646Z,36.9
2018-11-10T18:52:05.643Z,36.7
2018-11-10T18:54:05.455Z,36.7
2018-11-10T18:56:05.163Z,36.9
2018-11-10T18:58:06.046Z,37
2018-11-10T19:00:05.194Z,37
2018-11-10T19:02:11.012Z,36.8
2018-11-10T19:04:10.766Z,36.8
2018-11-10T19:06:05.597Z,36.9
2018-11-10T19:08:07.962Z,36.9
2018-11-10T19:10:05.723Z,36.7
2018-11-10T19:12:05.486Z,36.6
2018-11-10T19:14:05.199Z,36.7
2018-11-10T19:16:05.959Z,36.9
2018-11-10T19:18:05.992Z,36.8
2018-11-10T19:20:13.312Z,36.9
2018-11-10T19:22:07.624Z,36.6
2018-11-10T19:24:10.427Z,36.6
2018-11-10T19:26:07.781Z,36.8
2018-11-10T19:28:08.193Z,36.9
2018-11-10T19:30:05.918Z,36.7
2018-11-10T19:32:05.690Z,36.8
2018-11-10T19:34:05.482Z,36.8
2018-11-10T19:36:05.184Z,36.8
2018-11-10T19:38:05.131Z,36.8
2018-11-10T19:40:05.857Z,36.8
2018-11-10T19:42:05.598Z,36.6
2018-11-10T19:44:08.009Z,36.8
2018-11-10T19:46:05.764Z,36.8
2018-11-10T19:48:05.534Z,36.8
2018-11-10T19:50:05.328Z,36.7
2018-11-10T19:52:06.033Z,36.8
2018-11-10T19:54:10.867Z,36.6
2018-11-10T19:56:05.531Z,36.6
2018-11-10T19:58:05.561Z,36.6
2018-11-10T20:00:07.794Z,36.8
2018-11-10T20:02:06.505Z,36.9
2018-11-10T20:04:05.185Z,36.6
2018-11-10T20:06:05.544Z,36.8
2018-11-10T20:08:05.372Z,36.9
2018-11-10T20:10:08.106Z,36.7
2018-11-10T20:12:08.339Z,36.7
2018-11-10T20:14:05.279Z,36.7
2018-11-10T20:16:05.500Z,36.7
2018-11-10T20:18:05.904Z,36.7
2018-11-10T20:20:08.124Z,36.7
2018-11-10T20:22:05.818Z,36.7
2018-11-10T20:24:08.034Z,36.7
2018-11-10T20:26:05.775Z,36.7
2018-11-10T20:28:05.523Z,36.6
2018-11-10T20:30:12.773Z,36.7
2018-11-10T20:32:05.471Z,36.7
2018-11-10T20:34:05.199Z,36.5
2018-11-10T20:36:10.966Z,36.8
2018-11-10T20:38:08.175Z,36.8
2018-11-10T20:40:05.815Z,36.8
2018-11-10T20:42:05.578Z,36.7
2018-11-10T20:44:05.403Z,36.6
2018-11-10T20:46:05.665Z,36.8
2018-11-10T20:48:05.367Z,36.7
2018-11-10T20:50:05.079Z,36.5
2018-11-10T20:52:05.400Z,36.6
2018-11-10T20:54:08.161Z,36.7
2018-11-10T20:56:05.859Z,36.7
2018-11-10T20:58:05.521Z,36.6
2018-11-10T21:00:05.980Z,36.7
2018-11-10T21:02:08.223Z,36.6
2018-11-10T21:04:08.482Z,36.5
2018-11-10T21:06:05.222Z,36.6
2018-11-10T21:08:05.137Z,36.8
2018-11-10T21:10:05.921Z,36.8
2018-11-10T21:12:05.608Z,36.7
2018-11-10T21:14:05.349Z,36.5
2018-11-10T21:16:05.151Z,36.8
2018-11-10T21:18:05.286Z,36.7
2018-11-10T21:20:06.191Z,36.5
2018-11-10T21:22:05.174Z,36.6
2018-11-10T21:24:08.375Z,36.5
2018-11-10T21:26:05.067Z,36.5
2018-11-10T21:28:05.602Z,36.8
2018-11-10T21:30:05.553Z,36.8
2018-11-10T21:32:05.580Z,36.5
2018-11-10T21:34:05.489Z,36.8
2018-11-10T21:36:05.174Z,36.7
2018-11-10T21:38:05.388Z,36.7
2018-11-10T21:40:05.581Z,36.5
2018-11-10T21:42:06.279Z,36.5
2018-11-10T21:44:05.141Z,36.7
2018-11-10T21:46:08.371Z,36.6
2018-11-10T21:48:07.638Z,36.6
2018-11-10T21:50:05.378Z,36.7
2018-11-10T21:52:05.108Z,36.8
2018-11-10T21:54:07.869Z,36.9
2018-11-10T21:56:05.539Z,36.8
2018-11-10T21:58:10.272Z,36.9
2018-11-10T22:00:05.954Z,36.9
2018-11-10T22:02:05.659Z,37.1
2018-11-10T22:04:05.337Z,37.1
2018-11-10T22:06:07.554Z,37.1
2018-11-10T22:08:05.289Z,37.2
2018-11-10T22:10:08.484Z,36.9
2018-11-10T22:12:07.670Z,36.8
2018-11-10T22:14:05.336Z,37.1
2018-11-10T22:16:05.116Z,36.9
2018-11-10T22:18:05.038Z,37
2018-11-10T22:20:08.263Z,37.1
2018-11-10T22:22:07.601Z,37
2018-11-10T22:24:10.339Z,37.1
2018-11-10T22:26:07.574Z,37.1
2018-11-10T22:28:06.011Z,37.1
2018-11-10T22:30:12.810Z,37.2
2018-11-10T22:36:05.265Z,37
2018-11-10T22:38:05.336Z,37.2
2018-11-10T22:40:05.023Z,37.1
2018-11-10T22:42:05.965Z,37.1
2018-11-10T22:44:05.177Z,37.2
2018-11-10T22:46:07.942Z,37.1
2018-11-10T22:48:05.858Z,37.1
2018-11-10T22:50:05.312Z,37.1
2018-11-10T22:52:10.666Z,37
2018-11-10T22:54:05.375Z,37
2018-11-10T22:56:05.135Z,37.1
2018-11-10T22:58:05.841Z,37.1
2018-11-10T23:00:05.638Z,37.1
2018-11-10T23:02:10.656Z,37.1
2018-11-10T23:04:07.978Z,37.3
2018-11-10T23:06:05.701Z,37.1
2018-11-10T23:08:08.481Z,37.3
2018-11-10T23:10:06.349Z,37.3
2018-11-10T23:12:05.023Z,37.3
2018-11-10T23:14:05.217Z,37.2
2018-11-10T23:16:05.938Z,37.3
2018-11-10T23:18:10.955Z,37.3
2018-11-10T23:20:05.707Z,37.3
2018-11-10T23:22:10.452Z,37.4
2018-11-10T23:24:05.211Z,37.4
2018-11-10T23:26:05.984Z,37.2
2018-11-10T23:28:10.750Z,37.2
2018-11-10T23:30:05.495Z,37.2
2018-11-10T23:32:05.250Z,37.4
2018-11-10T23:34:06.002Z,37.2
2018-11-10T23:36:08.224Z,37.2
2018-11-10T23:38:08.540Z,37.2
2018-11-10T23:40:05.237Z,37.2
2018-11-10T23:42:10.957Z,37.3
2018-11-10T23:44:13.242Z,37.3
2018-11-10T23:46:05.929Z,37.2
2018-11-10T23:48:05.701Z,37.3
2018-11-10T23:50:05.466Z,37.4
2018-11-10T23:52:05.205Z,37.2
2018-11-10T23:54:06.117Z,37.2
2018-11-10T23:56:05.758Z,37.4
2018-11-10T23:58:13.239Z,37.2
